createdAt,value
2018-08-11T00:00:26.001Z,95.80
2018-08-11T00:02:54.967Z,94.70
2018-08-11T00:05:23.634Z,97.80
2018-08-11T00:07:52.328Z,96.90
2018-08-11T00:10:21.344Z,96.70
2018-08-11T00:12:49.888Z,93.60
2018-08-11T00:15:20.039Z,94.90
2018-08-11T00:17:48.900Z,94.50
2018-08-11T00:20:20.609Z,96.00
2018-08-11T00:22:49.257Z,94.40
2018-08-11T00:25:18.147Z,95.50
2018-08-11T00:27:46.778Z,95.60
2018-08-11T00:30:19.810Z,95.20
2018-08-11T00:32:48.516Z,95.70
2018-08-11T00:35:17.238Z,95.00
2018-08-11T00:37:46.106Z,96.30
2018-08-11T00:40:16.659Z,95.80
2018-08-11T00:42:47.407Z,95.80
2018-08-11T00:45:16.900Z,95.00
2018-08-11T00:47:45.568Z,94.30
2018-08-11T00:50:24.220Z,94.90
2018-08-11T00:52:53.208Z,95.30
2018-08-11T00:55:22.100Z,96.20
2018-08-11T00:57:50.726Z,96.00
2018-08-11T01:00:20.007Z,97.50
2018-08-11T01:02:48.726Z,96.00
2018-08-11T01:05:18.680Z,96.10
2018-08-11T01:07:47.764Z,97.00
2018-08-11T01:10:16.763Z,96.30
2018-08-11T01:12:46.011Z,97.40
2018-08-11T01:15:16.611Z,98.70
2018-08-11T01:17:45.957Z,97.20
2018-08-11T01:20:14.732Z,95.10
2018-08-11T01:22:44.385Z,96.30
2018-08-11T01:25:13.589Z,95.20
2018-08-11T01:27:42.162Z,95.40
2018-08-11T01:30:16.347Z,97.70
2018-08-11T01:32:44.920Z,97.50
2018-08-11T01:35:13.885Z,96.90
2018-08-11T01:37:43.389Z,96.50
2018-08-11T01:40:13.155Z,97.30
2018-08-11T01:42:42.979Z,96.20
2018-08-11T01:45:12.436Z,96.40
2018-08-11T01:47:41.430Z,97.00
2018-08-11T01:50:11.264Z,97.10
2018-08-11T01:52:41.088Z,96.70
2018-08-11T01:55:10.782Z,98.00
2018-08-11T01:57:39.564Z,97.70
2018-08-11T02:00:09.792Z,98.20
2018-08-11T02:02:38.575Z,97.00
2018-08-11T02:05:07.743Z,97.10
2018-08-11T02:07:36.662Z,96.50
2018-08-11T02:10:06.934Z,95.30
2018-08-11T02:12:35.723Z,95.40
2018-08-11T02:15:05.285Z,98.20
2018-08-11T02:17:33.832Z,95.40
2018-08-11T02:20:02.386Z,96.70
2018-08-11T02:22:30.978Z,95.90
2018-08-11T02:24:59.569Z,95.80
2018-08-11T02:27:28.126Z,97.70
2018-08-11T02:29:56.660Z,97.30
2018-08-11T02:32:25.302Z,97.40
2018-08-11T02:34:53.846Z,97.00
2018-08-11T02:37:22.471Z,97.30
2018-08-11T02:39:51.010Z,98.10
2018-08-11T02:42:19.544Z,98.20
2018-08-11T02:44:48.198Z,97.30
2018-08-11T02:47:16.919Z,96.90
2018-08-11T02:49:45.487Z,94.80
2018-08-11T02:52:14.068Z,96.50
2018-08-11T02:54:42.711Z,94.20
2018-08-11T02:57:11.252Z,96.10
2018-08-11T02:59:39.871Z,97.80
2018-08-11T03:02:08.438Z,95.80
2018-08-11T03:04:37.034Z,94.90
2018-08-11T03:07:06.513Z,94.20
2018-08-11T03:09:35.331Z,98.10
2018-08-11T03:12:03.928Z,97.10
2018-08-11T03:14:32.516Z,97.40
2018-08-11T03:17:01.085Z,97.20
2018-08-11T03:19:29.741Z,96.20
2018-08-11T03:21:58.265Z,95.10
2018-08-11T03:24:27.005Z,96.70
2018-08-11T03:26:55.592Z,96.70
2018-08-11T03:29:24.105Z,91.90
2018-08-11T03:31:52.726Z,92.20
2018-08-11T03:34:21.252Z,93.50
2018-08-11T03:36:49.852Z,94.10
2018-08-11T03:39:18.390Z,93.20
2018-08-11T03:41:46.933Z,92.40
2018-08-11T03:44:15.504Z,94.60
2018-08-11T03:46:44.060Z,93.60
2018-08-11T03:49:12.663Z,94.60
2018-08-11T03:51:41.507Z,93.40
2018-08-11T03:54:10.025Z,94.10
2018-08-11T03:56:38.580Z,98.60
2018-08-11T03:59:07.324Z,94.30
2018-08-11T04:01:35.940Z,92.90
2018-08-11T04:04:04.523Z,93.70
2018-08-11T04:06:33.183Z,93.80
2018-08-11T04:09:02.047Z,95.20
2018-08-11T04:11:30.564Z,95.50
2018-08-11T04:13:59.096Z,93.50
2018-08-11T04:16:27.666Z,94.60
2018-08-11T04:18:56.204Z,94.70
2018-08-11T04:21:24.837Z,95.30
2018-08-11T04:23:53.431Z,95.60
2018-08-11T04:26:22.023Z,95.90
2018-08-11T04:28:50.591Z,96.30
2018-08-11T04:31:19.152Z,96.70
2018-08-11T04:33:47.967Z,96.70
2018-08-11T04:36:16.654Z,96.60
2018-08-11T04:38:45.241Z,97.20
2018-08-11T04:41:18.405Z,97.10
2018-08-11T04:43:46.981Z,97.60
2018-08-11T04:46:15.580Z,97.30
2018-08-11T04:48:44.101Z,98.90
2018-08-11T04:51:12.676Z,97.70
2018-08-11T04:53:41.332Z,97.40
2018-08-11T04:56:10.221Z,96.90
2018-08-11T04:58:38.751Z,96.50
2018-08-11T05:01:07.312Z,96.90
2018-08-11T05:03:35.890Z,96.90
2018-08-11T05:06:04.511Z,97.20
2018-08-11T05:08:33.024Z,98.10
2018-08-11T05:11:01.568Z,96.70
2018-08-11T05:13:30.169Z,97.30
2018-08-11T05:15:58.732Z,96.30
2018-08-11T05:18:27.280Z,98.10
2018-08-11T05:20:55.808Z,98.80
2018-08-11T05:23:24.447Z,95.20
2018-08-11T05:25:52.977Z,97.70
2018-08-11T05:28:21.811Z,97.60
2018-08-11T05:30:50.358Z,96.60
2018-08-11T05:33:18.993Z,94.30
2018-08-11T05:35:47.629Z,93.90
2018-08-11T05:38:16.283Z,95.80
2018-08-11T05:40:44.789Z,94.50
2018-08-11T05:43:13.355Z,95.00
2018-08-11T05:45:42.013Z,94.90
2018-08-11T05:48:12.676Z,96.60
2018-08-11T05:50:41.327Z,97.30
2018-08-11T05:53:10.050Z,96.60
2018-08-11T05:55:38.639Z,93.70
2018-08-11T05:58:07.216Z,93.80
2018-08-11T06:00:35.756Z,94.10
2018-08-11T06:03:04.469Z,94.40
2018-08-11T06:05:33.056Z,94.90
2018-08-11T06:08:01.601Z,94.90
2018-08-11T06:10:30.214Z,94.60
2018-08-11T06:12:58.881Z,94.80
2018-08-11T06:15:27.405Z,95.30
2018-08-11T06:17:56.010Z,97.20
2018-08-11T06:20:24.555Z,94.90
2018-08-11T06:22:53.122Z,94.80
2018-08-11T06:25:21.756Z,94.80
2018-08-11T06:27:50.380Z,95.20
2018-08-11T06:30:18.916Z,97.90
2018-08-11T06:32:47.491Z,96.50
2018-08-11T06:35:16.075Z,95.60
2018-08-11T06:37:44.995Z,95.90
2018-08-11T06:40:13.545Z,93.50
2018-08-11T06:42:42.076Z,93.50
2018-08-11T06:45:10.682Z,93.50
2018-08-11T06:47:39.276Z,93.90
2018-08-11T06:50:08.376Z,93.50
2018-08-11T06:52:37.021Z,93.90
2018-08-11T06:55:05.692Z,93.60
2018-08-11T06:57:34.251Z,94.90
2018-08-11T07:00:03.008Z,96.00
2018-08-11T07:02:31.534Z,94.50
2018-08-11T07:05:00.332Z,92.30
2018-08-11T07:07:28.879Z,93.50
2018-08-11T07:09:57.519Z,92.10
2018-08-11T07:12:26.120Z,92.40
2018-08-11T07:14:54.681Z,91.40
2018-08-11T07:17:23.227Z,91.40
2018-08-11T07:19:51.754Z,93.40
2018-08-11T07:22:20.539Z,94.10
2018-08-11T07:24:49.051Z,91.90
2018-08-11T07:27:17.727Z,90.30
2018-08-11T07:29:46.366Z,86.90
2018-08-11T07:32:14.916Z,87.20
2018-08-11T07:34:43.456Z,85.30
2018-08-11T07:37:12.082Z,91.80
2018-08-11T07:39:40.663Z,88.20
2018-08-11T07:42:09.232Z,92.00
2018-08-11T07:44:37.842Z,95.20
2018-08-11T07:47:06.515Z,93.90
2018-08-11T07:49:35.038Z,96.90
2018-08-11T07:52:03.676Z,95.90
2018-08-11T07:54:32.325Z,97.40
2018-08-11T07:57:03.069Z,95.10
2018-08-11T07:59:31.631Z,95.20
2018-08-11T08:02:00.200Z,96.70
2018-08-11T08:04:28.824Z,99.00
2018-08-11T08:06:57.379Z,95.20
2018-08-11T08:09:25.981Z,95.40
2018-08-11T08:11:54.972Z,93.90
2018-08-11T08:14:23.602Z,97.70
2018-08-11T08:16:52.584Z,96.50
2018-08-11T08:19:21.265Z,92.70
2018-08-11T08:21:49.864Z,97.10
2018-08-11T08:24:18.485Z,99.40
2018-08-11T08:26:47.407Z,97.40
2018-08-11T08:29:15.968Z,96.30
2018-08-11T08:31:44.626Z,95.90
2018-08-11T08:34:13.323Z,95.70
2018-08-11T08:36:42.454Z,95.20
2018-08-11T08:39:12.725Z,89.70
2018-08-11T08:41:42.805Z,94.40
2018-08-11T08:44:12.454Z,93.80
2018-08-11T08:46:41.752Z,94.90
2018-08-11T08:49:11.022Z,96.30
2018-08-11T08:51:40.040Z,96.40
2018-08-11T08:54:09.140Z,97.50
2018-08-11T08:56:38.290Z,95.90
2018-08-11T08:59:07.830Z,94.10
2018-08-11T09:01:36.750Z,94.40
2018-08-11T09:04:05.731Z,94.50
2018-08-11T09:06:34.513Z,96.10
2018-08-11T09:09:04.192Z,98.10
2018-08-11T09:11:33.780Z,95.20
2018-08-11T09:14:02.595Z,94.70
2018-08-11T09:16:31.883Z,91.40
2018-08-11T09:19:00.908Z,91.20
2018-08-11T09:21:29.805Z,86.50
2018-08-11T09:23:58.506Z,93.30
2018-08-11T09:26:27.221Z,91.60
2018-08-11T09:28:55.796Z,95.90
2018-08-11T09:31:24.345Z,95.40
2018-08-11T09:33:52.980Z,95.40
2018-08-11T09:36:21.587Z,96.70
2018-08-11T09:38:50.081Z,94.40
2018-08-11T09:41:18.932Z,97.90
2018-08-11T09:43:47.618Z,94.80
2018-08-11T09:46:16.200Z,95.40
2018-08-11T09:48:44.732Z,93.10
2018-08-11T09:51:13.329Z,92.80
2018-08-11T09:53:41.890Z,82.10
2018-08-11T09:56:10.442Z,91.50
2018-08-11T09:58:39.070Z,85.10
2018-08-11T10:01:12.725Z,90.70
2018-08-11T10:03:41.239Z,92.50
2018-08-11T10:06:09.868Z,93.60
2018-08-11T10:08:38.520Z,93.90
2018-08-11T10:11:07.086Z,97.90
2018-08-11T10:13:35.650Z,95.00
2018-08-11T10:16:04.251Z,92.80
2018-08-11T10:18:33.066Z,92.70
2018-08-11T10:21:01.563Z,87.20
2018-08-11T10:23:30.077Z,79.00
2018-08-11T10:25:58.613Z,91.10
2018-08-11T10:28:27.157Z,83.30
2018-08-11T10:30:55.755Z,83.60
2018-08-11T10:33:24.318Z,80.20
2018-08-11T10:35:52.894Z,89.20
2018-08-11T10:38:21.446Z,81.20
2018-08-11T10:40:50.121Z,82.10
2018-08-11T10:43:18.704Z,84.80
2018-08-11T10:45:47.311Z,95.40
2018-08-11T10:48:15.809Z,95.60
2018-08-11T10:50:44.414Z,96.70
2018-08-11T10:53:13.072Z,97.20
2018-08-11T10:55:41.697Z,97.60
2018-08-11T10:58:11.756Z,95.00
2018-08-11T11:00:40.389Z,95.10
2018-08-11T11:03:08.991Z,96.40
2018-08-11T11:05:37.535Z,97.10
2018-08-11T11:08:06.304Z,92.90
2018-08-11T11:10:34.998Z,95.80
2018-08-11T11:13:03.694Z,90.10
2018-08-11T11:15:32.321Z,95.90
2018-08-11T11:18:01.018Z,90.40
2018-08-11T11:20:29.897Z,82.90
2018-08-11T11:22:58.432Z,64.20
2018-08-11T11:25:26.928Z,64.50
2018-08-11T11:27:55.569Z,65.80
2018-08-11T11:30:24.131Z,67.60
2018-08-11T11:32:52.692Z,85.30
2018-08-11T11:35:21.335Z,89.30
2018-08-11T11:37:50.025Z,92.40
2018-08-11T11:40:19.452Z,92.20
2018-08-11T11:42:48.017Z,96.60
2018-08-11T11:45:16.552Z,95.40
2018-08-11T11:47:45.400Z,78.40
2018-08-11T11:50:13.931Z,95.80
2018-08-11T11:52:42.454Z,85.30
2018-08-11T11:55:11.043Z,95.60
2018-08-11T11:57:39.757Z,80.80
2018-08-11T12:00:08.359Z,96.70
2018-08-11T12:02:36.868Z,95.60
2018-08-11T12:05:05.544Z,97.10
2018-08-11T12:07:34.249Z,97.40
2018-08-11T12:10:03.016Z,91.90
2018-08-11T12:12:31.520Z,97.40
2018-08-11T12:15:00.222Z,94.10
2018-08-11T12:17:28.921Z,95.30
2018-08-11T12:19:57.465Z,67.50
2018-08-11T12:22:25.978Z,72.70
2018-08-11T12:24:54.712Z,84.30
2018-08-11T12:27:23.540Z,93.50
2018-08-11T12:29:52.142Z,93.80
2018-08-11T12:32:20.908Z,85.60
2018-08-11T12:34:49.450Z,79.50
2018-08-11T12:37:18.007Z,91.30
2018-08-11T12:39:46.568Z,96.50
2018-08-11T12:42:15.140Z,95.40
2018-08-11T12:44:43.717Z,96.00
2018-08-11T12:47:12.264Z,87.20
2018-08-11T12:49:40.909Z,87.90
2018-08-11T12:52:09.546Z,77.10
2018-08-11T12:54:38.045Z,79.20
2018-08-11T12:57:06.646Z,94.00
2018-08-11T12:59:35.254Z,95.90
2018-08-11T13:02:03.897Z,83.90
2018-08-11T13:04:32.462Z,87.00
2018-08-11T13:07:01.082Z,83.20
2018-08-11T13:09:30.018Z,94.40
2018-08-11T13:11:58.579Z,94.50
2018-08-11T13:14:27.128Z,73.60
2018-08-11T13:16:55.777Z,91.70
2018-08-11T13:19:24.447Z,92.00
2018-08-11T13:21:53.071Z,59.70
2018-08-11T13:24:21.587Z,93.50
2018-08-11T13:26:50.176Z,95.00
2018-08-11T13:29:18.732Z,94.70
2018-08-11T13:31:47.292Z,94.70
2018-08-11T13:34:16.138Z,82.70
2018-08-11T13:36:44.722Z,94.70
2018-08-11T13:39:13.298Z,94.90
2018-08-11T13:41:45.559Z,95.50
2018-08-11T13:44:14.888Z,85.40
2018-08-11T13:46:43.417Z,67.00
2018-08-11T13:49:13.396Z,91.80
2018-08-11T13:51:42.118Z,95.70
2018-08-11T13:54:10.770Z,95.60
2018-08-11T13:56:39.603Z,95.70
2018-08-11T13:59:08.599Z,96.40
2018-08-11T14:01:37.271Z,94.80
2018-08-11T14:04:12.342Z,96.60
2018-08-11T14:06:40.891Z,95.00
2018-08-11T14:09:09.599Z,95.50
2018-08-11T14:11:38.288Z,97.10
2018-08-11T14:14:07.139Z,96.10
2018-08-11T14:16:35.688Z,97.50
2018-08-11T14:19:04.269Z,96.60
2018-08-11T14:21:32.936Z,96.80
2018-08-11T14:24:01.452Z,94.80
2018-08-11T14:26:30.241Z,97.00
2018-08-11T14:28:59.039Z,97.50
2018-08-11T14:31:30.895Z,97.90
2018-08-11T14:33:59.589Z,98.00
2018-08-11T14:36:28.185Z,98.00
2018-08-11T14:38:56.860Z,97.50
2018-08-11T14:41:25.512Z,98.30
2018-08-11T14:43:54.209Z,98.20
2018-08-11T14:46:22.863Z,94.10
2018-08-11T14:48:51.359Z,86.70
2018-08-11T14:51:20.152Z,87.10
2018-08-11T14:53:48.828Z,70.30
2018-08-11T14:56:17.382Z,90.10
2018-08-11T14:58:45.950Z,95.80
2018-08-11T15:01:14.565Z,97.00
2018-08-11T15:03:43.183Z,97.10
2018-08-11T15:06:11.768Z,94.20
2018-08-11T15:08:40.321Z,94.20
2018-08-11T15:11:08.895Z,94.50
2018-08-11T15:13:37.643Z,90.20
2018-08-11T15:16:06.164Z,85.00
2018-08-11T15:18:34.780Z,93.70
2018-08-11T15:21:03.425Z,95.90
2018-08-11T15:23:31.944Z,88.70
2018-08-11T15:26:00.528Z,87.20
2018-08-11T15:28:29.124Z,80.40
2018-08-11T15:30:57.669Z,70.50
2018-08-11T15:33:26.285Z,63.90
2018-08-11T15:35:54.809Z,60.80
2018-08-11T15:38:23.467Z,61.30
2018-08-11T15:40:52.272Z,61.90
2018-08-11T15:43:20.796Z,89.20
2018-08-11T15:45:49.384Z,59.80
2018-08-11T15:48:18.097Z,86.40
2018-08-11T15:50:46.606Z,69.80
2018-08-11T15:53:15.112Z,92.80
2018-08-11T15:55:43.657Z,90.50
2018-08-11T15:58:12.182Z,92.70
2018-08-11T16:00:40.713Z,77.90
2018-08-11T16:03:09.366Z,75.60
2018-08-11T16:05:37.863Z,92.90
2018-08-11T16:08:06.401Z,57.00
2018-08-11T16:10:35.028Z,53.80
2018-08-11T16:13:03.580Z,54.40
2018-08-11T16:15:32.124Z,53.90
2018-08-11T16:18:00.652Z,65.50
2018-08-11T16:20:29.466Z,68.80
2018-08-11T16:22:58.157Z,69.00
2018-08-11T16:25:26.800Z,76.70
2018-08-11T16:27:55.348Z,71.90
2018-08-11T16:30:23.903Z,73.30
2018-08-11T16:32:52.547Z,64.50
2018-08-11T16:35:21.108Z,54.60
2018-08-11T16:37:49.640Z,68.60
2018-08-11T16:40:18.184Z,71.50
2018-08-11T16:42:46.802Z,65.30
2018-08-11T16:45:15.405Z,59.00
2018-08-11T16:47:43.942Z,75.70
2018-08-11T16:50:12.605Z,82.80
2018-08-11T16:52:41.139Z,88.20
2018-08-11T16:55:09.685Z,91.90
2018-08-11T16:57:38.188Z,90.60
2018-08-11T17:00:08.988Z,86.70
2018-08-11T17:02:37.539Z,84.50
2018-08-11T17:05:06.239Z,86.50
2018-08-11T17:07:35.043Z,89.50
2018-08-11T17:10:03.816Z,78.60
2018-08-11T17:12:32.457Z,69.90
2018-08-11T17:15:01.109Z,63.40
2018-08-11T17:17:29.624Z,77.40
2018-08-11T17:19:58.291Z,91.60
2018-08-11T17:22:26.958Z,94.70
2018-08-11T17:24:55.467Z,79.90
2018-08-11T17:27:24.032Z,76.70
2018-08-11T17:29:53.585Z,77.00
2018-08-11T17:32:22.223Z,76.20
2018-08-11T17:34:50.931Z,79.10
2018-08-11T17:37:19.979Z,89.20
2018-08-11T17:39:48.993Z,92.00
2018-08-11T17:42:18.239Z,93.00
2018-08-11T17:44:48.080Z,91.20
2018-08-11T17:47:17.262Z,90.40
2018-08-11T17:49:46.083Z,94.00
2018-08-11T17:52:14.852Z,94.50
2018-08-11T17:54:43.641Z,95.30
2018-08-11T17:57:12.420Z,93.10
2018-08-11T17:59:41.142Z,85.00
2018-08-11T18:02:09.904Z,71.80
2018-08-11T18:04:38.568Z,78.20
2018-08-11T18:07:07.364Z,93.80
2018-08-11T18:09:35.923Z,93.90
2018-08-11T18:12:04.489Z,96.40
2018-08-11T18:14:33.130Z,96.80
2018-08-11T18:17:01.672Z,93.20
2018-08-11T18:19:30.719Z,69.40
2018-08-11T18:21:59.315Z,66.20
2018-08-11T18:24:27.966Z,67.00
2018-08-11T18:26:56.565Z,69.50
2018-08-11T18:29:25.423Z,67.20
2018-08-11T18:31:54.115Z,66.90
2018-08-11T18:34:22.759Z,66.60
2018-08-11T18:36:51.513Z,67.10
2018-08-11T18:39:20.096Z,67.60
2018-08-11T18:41:48.860Z,69.90
2018-08-11T18:44:17.767Z,68.20
2018-08-11T18:46:46.521Z,69.70
2018-08-11T18:49:15.292Z,72.70
2018-08-11T18:51:44.021Z,73.10
2018-08-11T18:54:12.558Z,72.50
2018-08-11T18:56:41.240Z,73.40
2018-08-11T18:59:09.932Z,75.20
2018-08-11T19:01:38.465Z,83.30
2018-08-11T19:04:07.248Z,82.30
2018-08-11T19:06:36.750Z,81.50
2018-08-11T19:09:08.796Z,77.00
2018-08-11T19:11:37.545Z,80.70
2018-08-11T19:14:06.173Z,89.00
2018-08-11T19:16:34.807Z,83.90
2018-08-11T19:19:03.398Z,86.40
2018-08-11T19:21:32.044Z,88.40
2018-08-11T19:24:00.729Z,89.90
2018-08-11T19:26:29.504Z,79.20
2018-08-11T19:28:58.114Z,81.90
2018-08-11T19:31:26.705Z,85.30
2018-08-11T19:33:55.299Z,86.10
2018-08-11T19:36:23.903Z,87.00
2018-08-11T19:38:52.700Z,78.20
2018-08-11T19:41:21.448Z,82.80
2018-08-11T19:43:50.029Z,88.10
2018-08-11T19:46:18.803Z,88.40
2018-08-11T19:48:47.425Z,90.40
2018-08-11T19:51:16.159Z,90.00
2018-08-11T19:53:44.766Z,91.30
2018-08-11T19:56:13.437Z,91.60
2018-08-11T19:58:42.091Z,92.20
2018-08-11T20:01:10.813Z,93.00
2018-08-11T20:03:39.511Z,93.30
2018-08-11T20:06:08.262Z,93.80
2018-08-11T20:08:37.212Z,94.60
2018-08-11T20:11:05.884Z,94.80
2018-08-11T20:13:34.447Z,94.80
2018-08-11T20:16:03.089Z,94.40
2018-08-11T20:18:31.717Z,94.10
2018-08-11T20:21:00.260Z,93.20
2018-08-11T20:23:28.967Z,93.30
2018-08-11T20:25:57.596Z,93.10
2018-08-11T20:28:26.193Z,93.00
2018-08-11T20:30:54.779Z,93.30
2018-08-11T20:33:23.400Z,93.50
2018-08-11T20:35:52.033Z,93.60
2018-08-11T20:38:20.612Z,93.50
2018-08-11T20:40:49.124Z,92.20
2018-08-11T20:43:17.775Z,93.40
2018-08-11T20:45:46.682Z,93.20
2018-08-11T20:48:15.316Z,90.70
2018-08-11T20:50:43.853Z,91.60
2018-08-11T20:53:12.599Z,94.00
2018-08-11T20:55:41.616Z,94.00
2018-08-11T20:58:10.138Z,93.50
2018-08-11T21:00:38.672Z,92.20
2018-08-11T21:03:10.175Z,92.40
2018-08-11T21:05:38.873Z,92.90
2018-08-11T21:08:07.980Z,92.50
2018-08-11T21:10:36.625Z,93.40
2018-08-11T21:13:05.189Z,94.30
2018-08-11T21:15:33.794Z,94.10
2018-08-11T21:18:02.443Z,95.20
2018-08-11T21:20:31.202Z,95.60
2018-08-11T21:22:59.909Z,95.10
2018-08-11T21:25:28.545Z,95.30
2018-08-11T21:27:57.118Z,95.20
2018-08-11T21:30:25.737Z,95.50
2018-08-11T21:32:54.434Z,94.80
2018-08-11T21:35:22.980Z,94.00
2018-08-11T21:37:51.524Z,93.80
2018-08-11T21:40:20.130Z,94.50
2018-08-11T21:42:48.760Z,94.10
2018-08-11T21:45:17.349Z,94.00
2018-08-11T21:47:45.911Z,94.70
2018-08-11T21:50:14.566Z,94.40
2018-08-11T21:52:43.336Z,94.50
2018-08-11T21:55:11.918Z,91.90
2018-08-11T21:57:40.556Z,93.50
2018-08-11T22:00:35.988Z,93.70
2018-08-11T22:03:05.543Z,94.10
2018-08-11T22:05:34.263Z,94.10
2018-08-11T22:08:03.493Z,93.60
2018-08-11T22:10:32.135Z,91.60
2018-08-11T22:13:00.760Z,92.30
2018-08-11T22:15:29.575Z,91.80
2018-08-11T22:17:58.245Z,92.30
2018-08-11T22:20:26.869Z,93.60
2018-08-11T22:22:55.537Z,90.30
2018-08-11T22:25:24.106Z,93.10
2018-08-11T22:27:52.664Z,93.50
2018-08-11T22:30:21.308Z,95.00
2018-08-11T22:32:49.947Z,92.00
2018-08-11T22:35:18.572Z,90.60
2018-08-11T22:37:47.164Z,93.60
2018-08-11T22:40:15.745Z,94.00
2018-08-11T22:42:44.379Z,94.20
2018-08-11T22:45:13.113Z,94.30
2018-08-11T22:47:41.789Z,93.20
2018-08-11T22:50:12.262Z,94.40
2018-08-11T22:52:40.920Z,93.90
2018-08-11T22:55:09.753Z,93.50
2018-08-11T22:57:38.333Z,92.70
2018-08-11T23:00:17.695Z,90.00
2018-08-11T23:02:46.592Z,93.60
2018-08-11T23:05:15.947Z,93.80
2018-08-11T23:07:44.754Z,94.10
2018-08-11T23:10:14.524Z,94.30
2018-08-11T23:12:44.356Z,94.20
2018-08-11T23:15:15.159Z,93.40
2018-08-11T23:17:44.982Z,91.70
2018-08-11T23:20:13.935Z,91.10
2018-08-11T23:22:42.503Z,91.10
2018-08-11T23:25:11.468Z,93.20
2018-08-11T23:27:40.066Z,93.00
2018-08-11T23:30:11.311Z,93.10
2018-08-11T23:32:40.612Z,91.50
2018-08-11T23:35:09.489Z,93.10
2018-08-11T23:37:38.036Z,93.80
2018-08-11T23:40:07.474Z,93.80
2018-08-11T23:42:36.334Z,93.40
2018-08-11T23:45:07.296Z,93.30
2018-08-11T23:47:36.028Z,93.40
2018-08-11T23:50:05.315Z,93.10
2018-08-11T23:52:33.867Z,93.10
2018-08-11T23:55:02.512Z,93.40
2018-08-11T23:57:31.140Z,93.10
2018-08-11T23:59:59.778Z,92.90
